createdAt,value
2022-08-26T00:00:09.035Z,23.70
2022-08-26T00:02:39.866Z,23.70
2022-08-26T00:05:08.981Z,23.70
2022-08-26T00:07:38.041Z,23.60
2022-08-26T00:10:08.616Z,23.70
2022-08-26T00:12:38.060Z,23.60
2022-08-26T00:15:07.950Z,23.60
2022-08-26T00:17:35.249Z,23.60
2022-08-26T00:20:05.315Z,23.60
2022-08-26T00:23:10.954Z,23.50
2022-08-26T00:25:42.621Z,23.50
2022-08-26T00:28:10.982Z,23.50
2022-08-26T00:30:38.823Z,23.50
2022-08-26T00:33:06.327Z,23.50
2022-08-26T00:35:35.368Z,23.50
2022-08-26T00:38:03.504Z,23.40
2022-08-26T00:40:36.387Z,23.40
2022-08-26T00:43:07.276Z,23.40
2022-08-26T00:46:03.824Z,23.40
2022-08-26T00:48:35.676Z,23.40
2022-08-26T00:51:19.632Z,23.40
2022-08-26T00:53:55.125Z,23.40
2022-08-26T00:56:45.464Z,23.40
2022-08-26T00:59:15.019Z,23.40
2022-08-26T01:01:46.050Z,23.40
2022-08-26T01:04:18.661Z,23.40
2022-08-26T01:06:50.819Z,23.40
2022-08-26T01:09:20.955Z,23.40
2022-08-26T01:11:50.906Z,23.40
2022-08-26T01:14:22.382Z,23.40
2022-08-26T01:16:52.334Z,23.40
2022-08-26T01:19:25.013Z,23.40
2022-08-26T01:22:28.710Z,23.40
2022-08-26T01:24:58.679Z,23.40
2022-08-26T01:27:32.545Z,23.40
2022-08-26T01:30:01.549Z,23.40
2022-08-26T01:32:33.163Z,23.40
2022-08-26T01:35:01.402Z,23.40
2022-08-26T01:37:39.094Z,23.40
2022-08-26T01:40:16.816Z,23.40
2022-08-26T01:42:46.845Z,23.40
2022-08-26T01:45:26.614Z,23.40
2022-08-26T01:47:57.366Z,23.40
2022-08-26T01:50:30.323Z,23.40
2022-08-26T01:53:01.186Z,23.40
2022-08-26T01:55:32.206Z,23.40
2022-08-26T01:58:01.106Z,23.30
2022-08-26T02:00:34.554Z,23.30
2022-08-26T02:03:17.583Z,23.30
2022-08-26T02:05:53.901Z,23.30
2022-08-26T02:08:38.052Z,23.30
2022-08-26T02:11:07.754Z,23.30
2022-08-26T02:13:39.991Z,23.20
2022-08-26T02:16:08.588Z,23.20
2022-08-26T02:18:42.147Z,23.20
2022-08-26T02:21:11.021Z,23.20
2022-08-26T02:23:38.129Z,23.10
2022-08-26T02:26:08.583Z,23.10
2022-08-26T02:28:46.729Z,23.10
2022-08-26T02:32:20.377Z,23.10
2022-08-26T02:34:49.757Z,23.10
2022-08-26T02:37:17.690Z,23.10
2022-08-26T02:39:45.186Z,23.10
2022-08-26T02:42:14.916Z,23.00
2022-08-26T02:44:43.985Z,23.10
2022-08-26T02:47:16.456Z,23.00
2022-08-26T02:49:47.425Z,23.00
2022-08-26T02:52:14.922Z,23.00
2022-08-26T02:54:44.338Z,22.90
2022-08-26T02:57:15.183Z,22.90
2022-08-26T02:59:42.308Z,22.90
2022-08-26T03:02:12.279Z,22.90
2022-08-26T03:05:02.260Z,22.90
2022-08-26T03:07:30.097Z,22.90
2022-08-26T03:10:01.861Z,22.90
2022-08-26T03:12:37.397Z,22.90
2022-08-26T03:15:16.614Z,22.90
2022-08-26T03:17:49.083Z,22.90
2022-08-26T03:20:17.654Z,22.90
2022-08-26T03:22:45.252Z,22.80
2022-08-26T03:25:16.745Z,22.90
2022-08-26T03:27:44.123Z,22.80
2022-08-26T03:30:30.988Z,22.90
2022-08-26T03:33:00.697Z,22.90
2022-08-26T03:35:30.333Z,22.80
2022-08-26T03:38:02.013Z,22.80
2022-08-26T03:40:34.471Z,22.80
2022-08-26T03:43:05.633Z,22.80
2022-08-26T03:45:36.353Z,22.80
2022-08-26T03:48:04.288Z,22.80
2022-08-26T03:50:31.206Z,22.80
2022-08-26T03:53:01.707Z,22.80
2022-08-26T03:55:32.180Z,22.80
2022-08-26T03:58:02.115Z,22.80
2022-08-26T04:00:34.450Z,22.80
2022-08-26T04:03:01.528Z,22.80
2022-08-26T04:05:28.444Z,22.80
2022-08-26T04:07:55.286Z,22.70
2022-08-26T04:10:28.482Z,22.70
2022-08-26T04:12:56.221Z,22.70
2022-08-26T04:15:26.874Z,22.70
2022-08-26T04:17:57.328Z,22.70
2022-08-26T04:20:24.846Z,22.70
2022-08-26T04:22:54.599Z,22.70
2022-08-26T04:25:24.193Z,22.70
2022-08-26T04:27:51.515Z,22.70
2022-08-26T04:30:19.988Z,22.70
2022-08-26T04:32:46.825Z,22.70
2022-08-26T04:35:15.787Z,22.70
2022-08-26T04:37:44.039Z,22.60
2022-08-26T04:40:11.584Z,22.60
2022-08-26T04:42:38.611Z,22.70
2022-08-26T04:45:11.712Z,22.60
2022-08-26T04:47:38.707Z,22.60
2022-08-26T04:50:07.359Z,22.70
2022-08-26T04:52:36.204Z,22.70
2022-08-26T04:55:03.449Z,22.70
2022-08-26T04:57:33.664Z,22.70
2022-08-26T05:00:00.604Z,22.70
2022-08-26T05:02:27.984Z,22.70
2022-08-26T05:04:54.960Z,22.80
2022-08-26T05:07:23.983Z,22.80
2022-08-26T05:09:50.825Z,22.80
2022-08-26T05:12:20.024Z,22.70
2022-08-26T05:14:47.672Z,22.70
2022-08-26T05:17:16.730Z,22.70
2022-08-26T05:19:43.602Z,22.80
2022-08-26T05:22:13.436Z,22.80
2022-08-26T05:24:41.172Z,22.80
2022-08-26T05:27:11.731Z,22.80
2022-08-26T05:29:42.388Z,22.80
2022-08-26T05:32:13.688Z,22.80
2022-08-26T05:34:41.300Z,22.80
2022-08-26T05:37:13.638Z,22.80
2022-08-26T05:39:43.447Z,22.80
2022-08-26T05:50:28.616Z,22.90
2022-08-26T05:52:55.405Z,22.90
2022-08-26T05:55:22.246Z,22.90
2022-08-26T05:57:49.188Z,22.90
2022-08-26T06:00:18.527Z,23.00
2022-08-26T06:02:45.380Z,23.00
2022-08-26T06:05:17.827Z,23.10
2022-08-26T06:08:05.603Z,23.10
2022-08-26T06:10:34.443Z,23.10
2022-08-26T06:13:11.701Z,23.10
2022-08-26T06:15:47.217Z,23.10
2022-08-26T06:18:20.339Z,23.10
2022-08-26T06:20:56.824Z,23.20
2022-08-26T06:23:45.716Z,23.20
2022-08-26T06:26:18.779Z,23.20
2022-08-26T06:28:50.385Z,23.30
2022-08-26T06:31:22.770Z,23.30
2022-08-26T06:33:50.643Z,23.40
2022-08-26T06:36:22.076Z,23.40
2022-08-26T06:38:51.805Z,23.40
2022-08-26T06:41:21.227Z,23.50
2022-08-26T06:43:50.851Z,23.50
2022-08-26T06:46:20.058Z,23.50
2022-08-26T06:48:49.688Z,23.60
2022-08-26T06:51:26.126Z,23.60
2022-08-26T06:53:59.470Z,23.60
2022-08-26T06:56:32.329Z,23.70
2022-08-26T06:59:04.500Z,23.70
2022-08-26T07:01:38.205Z,23.70
2022-08-26T07:04:10.673Z,23.70
2022-08-26T07:06:43.106Z,23.80
2022-08-26T07:09:10.915Z,23.80
2022-08-26T07:11:39.652Z,23.90
2022-08-26T07:14:14.189Z,23.90
2022-08-26T07:16:41.262Z,24.00
2022-08-26T07:19:11.628Z,24.00
2022-08-26T07:21:43.294Z,24.10
2022-08-26T07:24:13.390Z,24.20
2022-08-26T07:26:42.867Z,24.20
2022-08-26T07:29:13.650Z,24.20
2022-08-26T07:31:42.385Z,24.30
2022-08-26T07:34:13.846Z,24.40
2022-08-26T07:36:41.358Z,24.50
2022-08-26T07:39:08.846Z,24.50
2022-08-26T07:41:36.688Z,24.60
2022-08-26T07:44:08.760Z,24.60
2022-08-26T07:46:39.284Z,24.80
2022-08-26T07:49:08.129Z,24.80
2022-08-26T07:51:35.469Z,25.00
2022-08-26T07:54:05.663Z,25.00
2022-08-26T07:56:35.280Z,25.10
2022-08-26T07:59:04.073Z,25.20
2022-08-26T08:01:44.858Z,25.20
2022-08-26T08:04:14.452Z,25.40
2022-08-26T08:06:43.936Z,25.40
2022-08-26T08:09:14.829Z,25.60
2022-08-26T08:11:50.154Z,25.70
2022-08-26T08:14:23.188Z,25.90
2022-08-26T08:16:51.258Z,26.00
2022-08-26T08:19:24.422Z,26.10
2022-08-26T08:22:05.261Z,26.40
2022-08-26T08:24:44.416Z,26.60
2022-08-26T08:27:13.644Z,26.70
2022-08-26T08:29:41.203Z,26.70
2022-08-26T08:32:11.482Z,27.10
2022-08-26T08:37:10.961Z,28.10
2022-08-26T08:39:37.957Z,28.60
2022-08-26T08:42:23.705Z,28.80
2022-08-26T08:44:52.931Z,28.60
2022-08-26T08:47:47.379Z,28.70
2022-08-26T08:50:30.616Z,28.90
2022-08-26T08:53:15.396Z,28.60
2022-08-26T08:56:00.408Z,28.30
2022-08-26T08:58:51.717Z,28.30
2022-08-26T09:01:52.269Z,28.30
2022-08-26T09:05:02.831Z,28.10
2022-08-26T09:07:43.271Z,28.00
2022-08-26T09:10:32.233Z,28.00
2022-08-26T09:13:03.353Z,28.20
2022-08-26T09:15:43.608Z,28.20
2022-08-26T09:18:34.105Z,28.00
2022-08-26T09:21:04.262Z,27.90
2022-08-26T09:23:35.861Z,27.90
2022-08-26T09:26:23.520Z,28.00
2022-08-26T09:29:08.713Z,28.00
2022-08-26T09:31:40.382Z,28.10
2022-08-26T09:34:12.495Z,28.10
2022-08-26T09:36:53.699Z,28.10
2022-08-26T09:39:24.052Z,28.20
2022-08-26T09:42:14.286Z,28.40
2022-08-26T09:45:00.469Z,28.80
2022-08-26T09:47:39.213Z,29.00
2022-08-26T09:50:19.294Z,29.10
2022-08-26T09:52:49.600Z,29.70
2022-08-26T09:55:25.607Z,29.80
2022-08-26T09:57:54.889Z,30.00
2022-08-26T10:00:38.466Z,30.20
2022-08-26T10:03:23.841Z,30.10
2022-08-26T10:06:03.329Z,29.90
2022-08-26T10:08:37.256Z,30.00
2022-08-26T10:11:16.261Z,30.40
2022-08-26T10:13:52.239Z,30.30
2022-08-26T10:16:41.462Z,30.10
2022-08-26T10:19:15.827Z,30.20
2022-08-26T10:21:54.625Z,30.30
2022-08-26T10:24:39.604Z,30.10
2022-08-26T10:27:16.500Z,29.90
2022-08-26T10:29:48.073Z,29.90
2022-08-26T10:32:41.549Z,29.70
2022-08-26T10:35:14.710Z,29.70
2022-08-26T10:37:48.005Z,29.50
2022-08-26T10:40:49.496Z,29.20
2022-08-26T10:43:21.264Z,29.10
2022-08-26T10:45:54.306Z,29.00
2022-08-26T10:48:35.700Z,29.00
2022-08-26T10:51:06.310Z,28.90
2022-08-26T10:53:47.413Z,28.90
2022-08-26T10:56:30.418Z,28.90
2022-08-26T10:59:17.476Z,28.90
2022-08-26T11:01:51.145Z,29.00
2022-08-26T11:04:30.762Z,29.10
2022-08-26T11:07:32.045Z,29.00
2022-08-26T11:10:07.481Z,29.00
2022-08-26T11:12:37.564Z,28.90
2022-08-26T11:15:13.822Z,28.80
2022-08-26T11:17:47.262Z,28.80
2022-08-26T11:20:23.796Z,28.80
2022-08-26T11:22:52.129Z,28.80
2022-08-26T11:25:26.462Z,28.80
2022-08-26T11:27:59.663Z,28.70
2022-08-26T11:30:36.925Z,28.70
2022-08-26T11:33:04.138Z,28.60
2022-08-26T11:35:37.271Z,28.60
2022-08-26T11:38:04.586Z,28.50
2022-08-26T11:40:38.544Z,28.40
2022-08-26T11:43:11.547Z,28.30
2022-08-26T11:45:40.582Z,28.20
2022-08-26T11:48:18.928Z,28.10
2022-08-26T11:51:01.199Z,27.80
2022-08-26T11:53:34.151Z,27.50
2022-08-26T11:56:15.715Z,27.30
2022-08-26T11:58:44.635Z,27.10
2022-08-26T12:01:21.438Z,26.90
2022-08-26T12:03:52.028Z,26.80
2022-08-26T12:06:30.109Z,26.60
2022-08-26T12:09:01.265Z,26.50
2022-08-26T12:11:36.025Z,26.30
2022-08-26T12:14:18.614Z,26.30
2022-08-26T12:16:47.741Z,26.20
2022-08-26T12:19:32.758Z,26.10
2022-08-26T12:22:23.489Z,25.90
2022-08-26T12:25:00.625Z,25.80
2022-08-26T12:27:39.856Z,25.70
2022-08-26T12:30:14.317Z,25.70
2022-08-26T12:32:57.175Z,25.60
2022-08-26T12:35:26.881Z,25.50
2022-08-26T12:37:54.929Z,25.50
2022-08-26T12:40:31.395Z,25.40
2022-08-26T12:43:03.529Z,25.40
2022-08-26T12:45:38.060Z,25.20
2022-08-26T12:48:24.693Z,25.20
2022-08-26T12:50:53.899Z,25.10
2022-08-26T12:53:26.682Z,25.00
2022-08-26T12:56:17.492Z,25.00
2022-08-26T12:58:59.641Z,24.90
2022-08-26T13:01:35.537Z,24.80
2022-08-26T13:04:02.630Z,24.60
2022-08-26T13:06:31.149Z,24.50
2022-08-26T13:09:06.366Z,24.50
2022-08-26T13:11:39.593Z,24.40
2022-08-26T13:14:07.831Z,24.30
2022-08-26T13:16:36.091Z,24.20
2022-08-26T13:19:10.601Z,24.10
2022-08-26T13:21:41.896Z,24.00
2022-08-26T13:24:14.434Z,24.00
2022-08-26T13:26:43.489Z,24.00
2022-08-26T13:29:11.042Z,23.90
2022-08-26T13:31:41.272Z,23.80
2022-08-26T13:34:11.762Z,23.80
2022-08-26T13:36:43.929Z,23.70
2022-08-26T13:39:11.789Z,23.60
2022-08-26T13:41:38.691Z,23.60
2022-08-26T13:44:06.240Z,23.50
2022-08-26T13:46:33.821Z,23.60
2022-08-26T13:49:03.494Z,23.60
2022-08-26T13:51:35.819Z,23.50
2022-08-26T13:54:02.738Z,23.50
2022-08-26T13:56:30.150Z,23.50
2022-08-26T13:59:02.111Z,23.50
2022-08-26T14:01:32.691Z,23.40
2022-08-26T14:03:59.988Z,23.40
2022-08-26T14:06:31.410Z,23.40
2022-08-26T14:08:58.580Z,23.40
2022-08-26T14:11:25.673Z,23.30
2022-08-26T14:13:52.691Z,23.30
2022-08-26T14:16:33.497Z,23.10
2022-08-26T14:19:01.440Z,23.00
2022-08-26T14:21:34.168Z,22.90
2022-08-26T14:24:01.213Z,22.80
2022-08-26T14:26:30.343Z,22.70
2022-08-26T14:29:04.256Z,22.60
2022-08-26T14:31:33.017Z,22.50
2022-08-26T14:34:03.189Z,22.40
2022-08-26T14:36:33.903Z,22.30
2022-08-26T14:39:10.149Z,22.20
2022-08-26T14:41:53.881Z,22.20
2022-08-26T14:44:31.478Z,22.20
2022-08-26T14:47:01.334Z,22.10
2022-08-26T14:49:31.712Z,22.00
2022-08-26T14:51:58.637Z,21.90
2022-08-26T14:54:29.334Z,21.90
2022-08-26T14:57:05.528Z,21.90
2022-08-26T14:59:39.602Z,22.00
2022-08-26T15:02:13.712Z,22.00
2022-08-26T15:04:50.577Z,22.10
2022-08-26T15:07:17.430Z,22.10
2022-08-26T15:09:44.341Z,22.20
2022-08-26T15:12:11.223Z,22.20
2022-08-26T15:14:38.218Z,22.30
2022-08-26T15:17:05.310Z,22.40
2022-08-26T15:19:32.351Z,22.40
2022-08-26T15:22:04.025Z,22.40
2022-08-26T15:24:31.163Z,22.40
2022-08-26T15:26:58.050Z,22.40
2022-08-26T15:29:27.494Z,22.40
2022-08-26T15:31:57.435Z,22.40
2022-08-26T15:34:26.903Z,22.40
2022-08-26T15:36:56.365Z,22.40
2022-08-26T15:39:25.532Z,22.40
2022-08-26T15:41:52.586Z,22.40
2022-08-26T15:44:19.715Z,22.30
2022-08-26T15:46:49.102Z,22.30
2022-08-26T15:49:18.451Z,22.30
2022-08-26T15:51:46.970Z,22.40
2022-08-26T15:54:18.080Z,22.40
2022-08-26T15:56:51.697Z,22.40
2022-08-26T15:59:20.246Z,22.30
2022-08-26T16:01:47.639Z,22.30
2022-08-26T16:04:17.637Z,22.30
2022-08-26T16:06:50.222Z,22.30
2022-08-26T16:09:17.933Z,22.30
2022-08-26T16:11:44.883Z,22.30
2022-08-26T16:14:14.383Z,22.30
2022-08-26T16:16:41.568Z,22.30
2022-08-26T16:19:08.604Z,22.30
2022-08-26T16:21:36.174Z,22.30
2022-08-26T16:24:05.858Z,22.30
2022-08-26T16:26:37.466Z,22.30
2022-08-26T16:29:08.674Z,22.30
2022-08-26T16:31:37.949Z,22.40
2022-08-26T16:34:09.154Z,22.40
2022-08-26T16:36:39.637Z,22.40
2022-08-26T16:39:08.461Z,22.40
2022-08-26T16:41:36.072Z,22.40
2022-08-26T16:44:03.704Z,22.30
2022-08-26T16:46:36.094Z,22.30
2022-08-26T16:49:04.713Z,22.30
2022-08-26T16:51:37.790Z,22.30
2022-08-26T16:54:08.887Z,22.20
2022-08-26T16:56:36.578Z,22.20
2022-08-26T16:59:09.425Z,22.20
2022-08-26T17:01:36.447Z,22.20
2022-08-26T17:04:08.765Z,22.20
2022-08-26T17:06:36.091Z,22.20
2022-08-26T17:09:03.655Z,22.20
2022-08-26T17:11:31.018Z,22.20
2022-08-26T17:14:00.164Z,22.10
2022-08-26T17:16:29.518Z,22.10
2022-08-26T17:18:58.286Z,22.10
2022-08-26T17:21:26.461Z,22.10
2022-08-26T17:23:54.398Z,22.10
2022-08-26T17:26:23.852Z,22.10
2022-08-26T17:28:50.970Z,22.10
2022-08-26T17:31:21.551Z,22.10
2022-08-26T17:33:53.241Z,22.10
2022-08-26T17:36:21.989Z,22.10
2022-08-26T17:38:52.438Z,22.10
2022-08-26T17:41:24.584Z,22.10
2022-08-26T17:43:51.538Z,22.10
2022-08-26T17:46:21.115Z,22.00
2022-08-26T17:48:50.674Z,22.00
2022-08-26T17:51:19.326Z,22.00
2022-08-26T17:53:47.835Z,22.00
2022-08-26T17:56:16.431Z,22.00
2022-08-26T17:58:51.333Z,22.00
2022-08-26T18:01:21.322Z,22.00
2022-08-26T18:03:49.089Z,22.00
2022-08-26T18:06:18.078Z,21.90
2022-08-26T18:08:45.122Z,21.90
2022-08-26T18:11:16.293Z,21.90
2022-08-26T18:13:47.026Z,21.90
2022-08-26T18:16:16.002Z,21.90
2022-08-26T18:18:43.220Z,21.90
2022-08-26T18:21:15.962Z,21.90
2022-08-26T18:23:44.146Z,21.90
2022-08-26T18:26:17.123Z,21.90
2022-08-26T18:28:44.144Z,21.80
2022-08-26T18:31:15.279Z,21.80
2022-08-26T18:33:45.448Z,21.80
2022-08-26T18:36:35.520Z,21.80
2022-08-26T18:39:08.641Z,21.80
2022-08-26T18:41:41.638Z,21.80
2022-08-26T18:44:12.963Z,21.70
2022-08-26T18:46:43.948Z,21.70
2022-08-26T18:49:13.268Z,21.80
2022-08-26T18:51:44.290Z,21.70
2022-08-26T18:54:11.684Z,21.70
2022-08-26T18:56:42.325Z,21.70
2022-08-26T18:59:14.478Z,21.70
2022-08-26T19:01:50.564Z,21.70
2022-08-26T19:04:26.075Z,21.70
2022-08-26T19:06:57.956Z,21.70
2022-08-26T19:09:26.331Z,21.70
2022-08-26T19:11:54.308Z,21.70
2022-08-26T19:14:23.690Z,21.60
2022-08-26T19:16:52.265Z,21.70
2022-08-26T19:19:26.950Z,21.70
2022-08-26T19:21:54.142Z,21.70
2022-08-26T19:24:28.195Z,21.70
2022-08-26T19:27:00.250Z,21.70
2022-08-26T19:29:33.618Z,21.60
2022-08-26T19:32:01.921Z,21.60
2022-08-26T19:34:32.694Z,21.60
2022-08-26T19:36:59.517Z,21.60
2022-08-26T19:39:27.358Z,21.60
2022-08-26T19:41:55.530Z,21.60
2022-08-26T19:44:42.090Z,21.60
2022-08-26T19:47:10.774Z,21.60
2022-08-26T19:49:40.219Z,21.60
2022-08-26T19:52:07.418Z,21.50
2022-08-26T19:54:37.513Z,21.60
2022-08-26T19:57:05.316Z,21.60
2022-08-26T19:59:36.091Z,21.50
2022-08-26T20:02:10.574Z,21.60
2022-08-26T20:04:38.445Z,21.60
2022-08-26T20:07:09.049Z,21.50
2022-08-26T20:09:38.377Z,21.50
2022-08-26T20:12:06.962Z,21.60
2022-08-26T20:14:35.311Z,21.50
2022-08-26T20:17:04.066Z,21.50
2022-08-26T20:19:49.623Z,21.50
2022-08-26T20:22:17.420Z,21.50
2022-08-26T20:24:47.307Z,21.50
2022-08-26T20:27:15.413Z,21.50
2022-08-26T20:29:44.571Z,21.50
2022-08-26T20:32:12.151Z,21.50
2022-08-26T20:34:40.044Z,21.40
2022-08-26T20:37:12.235Z,21.40
2022-08-26T20:39:44.898Z,21.40
2022-08-26T20:42:19.906Z,21.40
2022-08-26T20:44:54.512Z,21.50
2022-08-26T20:47:21.882Z,21.40
2022-08-26T20:49:48.772Z,21.40
2022-08-26T20:52:20.170Z,21.40
2022-08-26T20:54:47.068Z,21.40
2022-08-26T20:57:14.650Z,21.40
2022-08-26T20:59:41.566Z,21.40
2022-08-26T21:02:09.857Z,21.50
2022-08-26T21:04:36.917Z,21.50
2022-08-26T21:07:05.966Z,21.50
2022-08-26T21:09:32.953Z,21.50
2022-08-26T21:11:59.852Z,21.50
2022-08-26T21:14:29.250Z,21.50
2022-08-26T21:16:56.829Z,21.50
2022-08-26T21:19:26.636Z,21.50
2022-08-26T21:21:53.658Z,21.40
2022-08-26T21:24:20.977Z,21.40
2022-08-26T21:26:50.538Z,21.40
2022-08-26T21:29:17.459Z,21.40
2022-08-26T21:31:47.129Z,21.40
2022-08-26T21:34:22.533Z,21.40
2022-08-26T21:36:49.921Z,21.40
2022-08-26T21:39:19.355Z,21.40
2022-08-26T21:41:48.578Z,21.30
2022-08-26T21:44:19.101Z,21.30
2022-08-26T21:46:51.078Z,21.30
2022-08-26T21:49:17.911Z,21.40
2022-08-26T21:51:48.935Z,21.40
2022-08-26T21:54:17.435Z,21.40
2022-08-26T21:56:46.797Z,21.40
2022-08-26T21:59:15.977Z,21.40
2022-08-26T22:01:43.258Z,21.40
2022-08-26T22:04:12.926Z,21.40
2022-08-26T22:06:50.474Z,21.40
2022-08-26T22:09:22.564Z,21.40
2022-08-26T22:11:49.545Z,21.40
2022-08-26T22:14:21.997Z,21.40
2022-08-26T22:16:50.623Z,21.40
2022-08-26T22:19:19.374Z,21.40
2022-08-26T22:21:49.427Z,21.40
2022-08-26T22:24:17.978Z,21.40
2022-08-26T22:26:47.942Z,21.40
2022-08-26T22:29:16.021Z,21.40
2022-08-26T22:31:43.076Z,21.40
2022-08-26T22:34:12.497Z,21.40
2022-08-26T22:36:47.838Z,21.40
2022-08-26T22:39:20.554Z,21.40
2022-08-26T22:41:48.606Z,21.40
2022-08-26T22:44:18.651Z,21.40
2022-08-26T22:46:46.554Z,21.40
2022-08-26T22:49:16.597Z,21.40
2022-08-26T22:51:45.639Z,21.30
2022-08-26T22:58:30.433Z,21.30
2022-08-26T23:00:59.469Z,21.30
2022-08-26T23:03:29.080Z,21.30
2022-08-26T23:05:58.403Z,21.20
2022-08-26T23:08:27.576Z,21.20
2022-08-26T23:10:56.775Z,21.20
2022-08-26T23:13:26.189Z,21.20
2022-08-26T23:16:01.435Z,21.10
2022-08-26T23:18:28.649Z,21.10
2022-08-26T23:20:55.924Z,21.10
2022-08-26T23:23:28.095Z,21.10
2022-08-26T23:25:55.950Z,21.10
2022-08-26T23:28:23.358Z,21.10
2022-08-26T23:30:54.711Z,21.10
2022-08-26T23:33:21.714Z,21.10
2022-08-26T23:35:48.765Z,21.10
2022-08-26T23:38:18.503Z,21.10
2022-08-26T23:40:48.461Z,21.10
2022-08-26T23:43:16.406Z,21.10
2022-08-26T23:45:45.392Z,21.00
2022-08-26T23:48:14.783Z,21.10
2022-08-26T23:51:04.010Z,21.10
2022-08-26T23:53:30.859Z,21.10
2022-08-26T23:55:57.715Z,21.10
2022-08-26T23:58:24.626Z,21.00
